sensor_id;sensor_type;location;lat;lon;timestamp;temperature;humidity
52947;DHT22;68773;40.400;17.260;2023-07-08T21:32:15;28.80;46.70
52947;DHT22;68773;40.400;17.260;2023-07-08T21:34:41;28.40;48.50
52947;DHT22;68773;40.400;17.260;2023-07-08T21:37:09;28.20;49.20
52947;DHT22;68773;40.400;17.260;2023-07-08T21:45:53;27.60;51.50
52947;DHT22;68773;40.400;17.260;2023-07-08T21:48:19;27.40;52.80
52947;DHT22;68773;40.400;17.260;2023-07-08T21:50:51;27.40;53.40
52947;DHT22;68773;40.400;17.260;2023-07-08T21:53:24;27.30;53.70
52947;DHT22;68773;40.400;17.260;2023-07-08T21:55:53;27.20;54.20
52947;DHT22;68773;40.400;17.260;2023-07-08T21:58:19;27.10;54.60
52947;DHT22;68773;40.400;17.260;2023-07-08T22:00:45;27.10;54.90
52947;DHT22;68773;40.400;17.260;2023-07-08T22:03:16;27.00;55.70
52947;DHT22;68773;40.400;17.260;2023-07-08T22:05:43;26.90;56.20
52947;DHT22;68773;40.400;17.260;2023-07-08T22:08:20;27.10;56.00
52947;DHT22;68773;40.400;17.260;2023-07-08T22:10:49;27.10;56.10
52947;DHT22;68773;40.400;17.260;2023-07-08T22:13:29;27.10;55.90
52947;DHT22;68773;40.400;17.260;2023-07-08T22:15:57;27.10;55.90
52947;DHT22;68773;40.400;17.260;2023-07-08T22:18:24;26.90;56.00
52947;DHT22;68773;40.400;17.260;2023-07-08T22:20:58;26.80;56.40
52947;DHT22;68773;40.400;17.260;2023-07-08T22:23:26;26.80;56.50
52947;DHT22;68773;40.400;17.260;2023-07-08T22:25:52;26.90;56.40
52947;DHT22;68773;40.400;17.260;2023-07-08T22:28:18;26.90;56.10
52947;DHT22;68773;40.400;17.260;2023-07-08T22:30:45;26.70;55.70
52947;DHT22;68773;40.400;17.260;2023-07-08T22:33:12;26.60;55.60
52947;DHT22;68773;40.400;17.260;2023-07-08T22:35:38;26.70;55.60
52947;DHT22;68773;40.400;17.260;2023-07-08T22:38:04;26.60;55.30
52947;DHT22;68773;40.400;17.260;2023-07-08T22:40:32;26.60;55.30
52947;DHT22;68773;40.400;17.260;2023-07-08T22:43:01;26.50;54.90
52947;DHT22;68773;40.400;17.260;2023-07-08T22:45:27;26.50;55.00
52947;DHT22;68773;40.400;17.260;2023-07-08T22:47:53;26.50;54.50
52947;DHT22;68773;40.400;17.260;2023-07-08T22:50:25;26.40;54.10
52947;DHT22;68773;40.400;17.260;2023-07-08T22:52:52;26.30;52.70
52947;DHT22;68773;40.400;17.260;2023-07-08T22:55:20;26.20;52.20
52947;DHT22;68773;40.400;17.260;2023-07-08T22:57:49;26.20;51.80
52947;DHT22;68773;40.400;17.260;2023-07-08T23:00:21;26.20;52.10
52947;DHT22;68773;40.400;17.260;2023-07-08T23:02:48;26.20;51.10
52947;DHT22;68773;40.400;17.260;2023-07-08T23:05:17;26.10;51.10
52947;DHT22;68773;40.400;17.260;2023-07-08T23:07:43;26.00;51.20
52947;DHT22;68773;40.400;17.260;2023-07-08T23:10:13;26.00;51.10
52947;DHT22;68773;40.400;17.260;2023-07-08T23:12:39;26.10;50.90
52947;DHT22;68773;40.400;17.260;2023-07-08T23:15:06;26.00;51.70
52947;DHT22;68773;40.400;17.260;2023-07-08T23:17:34;25.80;51.50
52947;DHT22;68773;40.400;17.260;2023-07-08T23:20:00;25.70;52.20
52947;DHT22;68773;40.400;17.260;2023-07-08T23:22:26;25.70;52.40
52947;DHT22;68773;40.400;17.260;2023-07-08T23:24:52;26.00;52.40
52947;DHT22;68773;40.400;17.260;2023-07-08T23:27:22;26.00;52.40
52947;DHT22;68773;40.400;17.260;2023-07-08T23:29:48;26.00;52.50
52947;DHT22;68773;40.400;17.260;2023-07-08T23:32:14;25.90;53.10
52947;DHT22;68773;40.400;17.260;2023-07-08T23:34:40;25.90;53.20
52947;DHT22;68773;40.400;17.260;2023-07-08T23:37:11;25.80;55.80
52947;DHT22;68773;40.400;17.260;2023-07-08T23:39:37;25.90;55.40
52947;DHT22;68773;40.400;17.260;2023-07-08T23:42:03;25.90;56.00
52947;DHT22;68773;40.400;17.260;2023-07-08T23:44:29;25.90;56.40
52947;DHT22;68773;40.400;17.260;2023-07-08T23:46:57;25.90;56.80
52947;DHT22;68773;40.400;17.260;2023-07-08T23:49:33;25.90;57.30
52947;DHT22;68773;40.400;17.260;2023-07-08T23:52:00;25.80;57.70
52947;DHT22;68773;40.400;17.260;2023-07-08T23:54:32;25.70;58.00
52947;DHT22;68773;40.400;17.260;2023-07-08T23:57:00;25.70;58.10
52947;DHT22;68773;40.400;17.260;2023-07-08T23:59:50;25.80;58.20
